Weather Forecast for Dubai Airport 
Friday, April 28, 2017 (10:11 UTC)
Dubai International Airport
Last Updated: 28-04-2017(10:08Z)
Wind Dir/Speed: NNW at 7 KT
Temperature: 34.2 °C
Rel. Humidity: 42 %
Pressure: 1008.5 hPa
Visibility: 10000 m
  • METAR OMDB 281000Z 33012KT CAVOK 34/20 Q1008 NOSIG
NEXT 5 DAY FORECAST (OMDB): as on 28-April-2017
FRIDAY
HIGH:
38 °C
LOW:
27 °C
SATURDAY
HIGH:
39 °C
LOW:
28 °C
SUNDAY
HIGH:
38 °C
LOW:
29 °C
MONDAY
HIGH:
37 °C
LOW:
28 °C
TUESDAY
HIGH:
37 °C
LOW:
29 °C

DUBAI AIRPORT WEATHER FORECAST FOR 30 HOUR:
DUBAI TAF:
TAF OMDB 280454Z 2806/2912 18005KT CAVOK BECMG 2807/2809 32012KT BECMG 2816/2818 10005KT BECMG 2904/2906 18012KT BECMG 2908/2910 34015KT=
VALID FROM:
2017-04-28 06:00Z
VALID TILL:
2017-04-29 12:00Z
SURFACE WIND:
S'LY 05KT

BECOMING NW'LY 12KT FROM 0700Z-0900Z TODAY

BECOMING E'LY 05KT FROM 1600Z-1800Z TODAY

BECOMING S'LY 12KT FROM 0400Z-0600Z SARURDAY

BECOMING NNW'LY 15KT FROM 0800Z-1000Z SATURDAY.
VISIBILITY:
08-12 KM.

WEATHER:
FINE.

CLOUD:
NIL SIGNIFICANT.
TEMPERATURE:
MAX TEMPERATURE 38°C AROUND 0900Z TODAY

MIN TEMPERATURE 28°C AROUND 0230Z SATURDAY

MAX TEMPERATURE 39°C AROUND 1000Z SATURDAY.
HUMIDITY:
MIN HUMIDITY 20% AROUND 0900Z TODAY

MAX HUMIDITY 55% AROUND 0230Z SATURDAY

MIN HUMIDITY 15% AROUND 1000Z SATURDAY.
WIND SHEAR:
NIL SIGNIFICANT.
TEMPERATURE INVERSION:
NIL SIGNIFICANT.
COMMENTS:
NIL.